Time;durP1;ratioP1;P1;durP2;ratioP2;P2;SDS_P1;SDS_P2;PMS_P1;PMS_P2;Temp;Humidity;BMP_temperature;BMP_pressure;BME280_temperature;BME280_humidity;BME280_pressure;Samples;Min_cycle;Max_cycle;Signal;HPM_P1;HPM_P2
2022/08/30 00:01:09;;;;;;;11.13;7.10;;;15.90;99.90;;;;;;5030298;28;20042;-50
2022/08/30 00:03:45;;;;;;;10.70;7.18;;;15.80;99.90;;;;;;5030394;28;20037;-49
2022/08/30 00:06:15;;;;;;;10.20;6.97;;;15.90;99.90;;;;;;5029686;28;20050;-49
2022/08/30 00:08:43;;;;;;;10.40;6.63;;;15.90;99.90;;;;;;5033653;28;20390;-49
2022/08/30 00:11:12;;;;;;;12.52;7.45;;;15.80;99.90;;;;;;5032949;28;20100;-49
2022/08/30 00:13:41;;;;;;;10.85;6.90;;;15.80;99.90;;;;;;5026740;28;20049;-49
2022/08/30 00:16:09;;;;;;;10.23;7.05;;;15.80;99.90;;;;;;5033581;28;20053;-49
2022/08/30 00:18:37;;;;;;;11.30;7.00;;;15.80;99.90;;;;;;5034057;28;20120;-52
2022/08/30 00:21:04;;;;;;;9.70;7.00;;;15.80;99.90;;;;;;5034273;28;20390;-48
2022/08/30 00:23:32;;;;;;;9.80;6.95;;;15.80;99.90;;;;;;5025832;28;20052;-49
2022/08/30 00:25:59;;;;;;;13.18;7.68;;;15.80;99.90;;;;;;5025769;28;20037;-48
2022/08/30 00:28:26;;;;;;;;;;;15.80;99.90;;;;;;5034609;28;20413;-49
2022/08/30 00:30:53;;;;;;;10.82;7.20;;;15.80;99.90;;;;;;5034150;28;20293;-51
2022/08/30 00:33:21;;;;;;;11.38;6.70;;;15.80;99.90;;;;;;5032340;28;20037;-49
2022/08/30 00:35:49;;;;;;;9.45;6.32;;;15.70;99.90;;;;;;5032494;28;20053;-49
2022/08/30 00:38:15;;;;;;;17.23;8.15;;;15.70;99.90;;;;;;5032898;28;20042;-50
2022/08/30 00:40:44;;;;;;;10.90;7.20;;;15.70;99.90;;;;;;5033011;28;20041;-49
2022/08/30 00:43:19;;;;;;;11.18;7.70;;;15.70;99.90;;;;;;5032188;28;20049;-48
2022/08/30 00:45:46;;;;;;;12.77;7.30;;;15.70;99.90;;;;;;5033270;28;20045;-50
2022/08/30 00:48:13;;;;;;;14.85;8.00;;;15.70;99.90;;;;;;5032928;28;20473;-49
2022/08/30 00:50:44;;;;;;;9.43;6.35;;;15.50;99.90;;;;;;5033490;28;20076;-48
2022/08/30 00:53:19;;;;;;;13.02;7.45;;;15.30;99.90;;;;;;5031594;28;20042;-48
2022/08/30 00:55:47;;;;;;;12.75;7.57;;;15.20;99.90;;;;;;5032828;28;20045;-48
2022/08/30 00:58:20;;;;;;;9.57;6.68;;;15.10;99.90;;;;;;5033349;28;20049;-49
2022/08/30 01:00:53;;;;;;;14.25;8.07;;;15.10;99.90;;;;;;5031774;28;20038;-49
2022/08/30 01:03:20;;;;;;;9.90;7.47;;;15.20;99.90;;;;;;5033486;28;20405;-47
2022/08/30 01:05:50;;;;;;;15.88;7.55;;;15.20;99.90;;;;;;5032956;28;20041;-48
2022/08/30 01:08:20;;;;;;;15.98;7.22;;;15.20;99.90;;;;;;5032467;28;20413;-47
2022/08/30 01:10:50;;;;;;;14.52;7.85;;;15.20;99.90;;;;;;5033623;28;20057;-47
2022/08/30 01:13:20;;;;;;;13.20;7.97;;;15.30;99.90;;;;;;5032411;28;20046;-48
2022/08/30 01:15:49;;;;;;;11.63;7.20;;;15.30;99.90;;;;;;5032455;28;20559;-48
2022/08/30 01:18:17;;;;;;;12.00;7.63;;;15.40;99.90;;;;;;5041114;28;20033;-50
2022/08/30 01:20:53;;;;;;;12.93;7.30;;;15.30;99.90;;;;;;5038839;28;20504;-49
2022/08/30 01:23:23;;;;;;;11.02;7.72;;;15.30;99.90;;;;;;5033076;28;20064;-49
2022/08/30 01:25:53;;;;;;;10.85;7.30;;;15.30;99.90;;;;;;5031307;28;20037;-47
2022/08/30 01:28:23;;;;;;;10.95;7.43;;;15.30;99.90;;;;;;5032967;28;20061;-49
2022/08/30 01:30:51;;;;;;;12.25;7.57;;;15.20;99.90;;;;;;5032856;28;20042;-47
2022/08/30 01:33:20;;;;;;;14.73;7.78;;;15.20;99.90;;;;;;5032989;28;20054;-47
2022/08/30 01:35:56;;;;;;;12.82;7.53;;;15.10;99.90;;;;;;5031193;28;20072;-48
2022/08/30 01:38:26;;;;;;;11.48;7.60;;;15.10;99.90;;;;;;5032932;28;20053;-48
2022/08/30 01:40:58;;;;;;;11.30;7.60;;;15.10;99.90;;;;;;5023807;28;20042;-48
2022/08/30 01:43:25;;;;;;;13.25;7.78;;;15.10;99.90;;;;;;5032251;28;20042;-48
2022/08/30 01:45:52;;;;;;;14.80;7.28;;;15.10;99.90;;;;;;5031773;28;20493;-48
2022/08/30 01:48:20;;;;;;;13.20;7.88;;;15.10;99.90;;;;;;5031729;28;20448;-48
2022/08/30 01:50:54;;;;;;;18.52;8.35;;;15.10;99.90;;;;;;5032692;28;20055;-48
2022/08/30 01:53:21;;;;;;;;;;;15.00;99.90;;;;;;5032460;28;20049;-49
2022/08/30 01:55:47;;;;;;;11.48;6.63;;;15.00;99.90;;;;;;5032325;28;19952;-48
2022/08/30 01:58:14;;;;;;;13.85;7.85;;;14.80;99.90;;;;;;5031505;28;20045;-48
2022/08/30 02:00:41;;;;;;;16.75;7.80;;;14.70;99.90;;;;;;5032485;28;20092;-48
2022/08/30 02:03:07;;;;;;;13.52;7.90;;;14.60;99.90;;;;;;5030904;28;20103;-47
2022/08/30 02:05:34;;;;;;;12.10;7.68;;;14.50;99.90;;;;;;5031938;28;20045;-47
2022/08/30 02:08:02;;;;;;;11.48;7.35;;;14.50;99.90;;;;;;5030547;28;20048;-48
2022/08/30 02:10:29;;;;;;;16.90;8.38;;;14.50;99.90;;;;;;5031889;28;20044;-48
2022/08/30 02:12:56;;;;;;;;;;;14.50;99.90;;;;;;5029335;28;20053;-49
2022/08/30 02:15:23;;;;;;;14.80;7.93;;;14.50;99.90;;;;;;5019721;28;19921;-49
2022/08/30 02:17:50;;;;;;;12.48;7.95;;;14.50;99.90;;;;;;5041188;28;20507;-48
2022/08/30 02:20:16;;;;;;;12.20;8.23;;;14.50;99.90;;;;;;5034967;28;20049;-48
2022/08/30 02:22:43;;;;;;;12.60;8.52;;;14.60;99.90;;;;;;5031228;28;20439;-49
2022/08/30 02:25:15;;;;;;;11.43;7.40;;;14.60;99.90;;;;;;5051537;28;20033;-52
2022/08/30 02:27:47;;;;;;;11.88;7.70;;;14.50;99.90;;;;;;5051069;28;20109;-49
2022/08/30 02:30:14;;;;;;;16.33;7.82;;;14.60;99.90;;;;;;5030255;28;20052;-49
2022/08/30 02:32:41;;;;;;;14.48;7.75;;;14.60;99.90;;;;;;5031837;28;20049;-51
2022/08/30 02:35:08;;;;;;;14.95;8.90;;;14.60;99.90;;;;;;5023536;28;20116;-51
2022/08/30 02:37:35;;;;;;;;;;;14.60;99.90;;;;;;5032139;28;20076;-47
2022/08/30 02:40:03;;;;;;;11.82;7.10;;;14.60;99.90;;;;;;5030793;28;19921;-48
2022/08/30 02:42:30;;;;;;;13.48;7.45;;;14.60;99.90;;;;;;5031179;28;20095;-48
2022/08/30 02:44:56;;;;;;;13.90;8.25;;;14.60;99.90;;;;;;5030928;28;20037;-47
2022/08/30 02:47:23;;;;;;;15.32;7.82;;;14.60;99.90;;;;;;5030518;28;20490;-48
2022/08/30 02:49:50;;;;;;;15.50;7.45;;;14.60;99.90;;;;;;5031564;28;20049;-48
2022/08/30 02:52:18;;;;;;;14.10;7.60;;;14.60;99.90;;;;;;5029464;28;20056;-50
2022/08/30 02:54:54;;;;;;;13.68;7.97;;;14.60;99.90;;;;;;5030580;28;20080;-50
2022/08/30 02:57:21;;;;;;;16.80;7.75;;;14.60;99.90;;;;;;5031263;28;20045;-48
2022/08/30 02:59:48;;;;;;;12.90;8.60;;;14.50;99.90;;;;;;5026125;28;20506;-48
2022/08/30 03:02:15;;;;;;;12.18;7.97;;;14.40;99.90;;;;;;5046793;28;20401;-48
2022/08/30 03:04:43;;;;;;;13.70;7.80;;;14.40;99.90;;;;;;5050724;28;20033;-49
2022/08/30 03:07:11;;;;;;;15.75;9.57;;;14.40;99.90;;;;;;5031913;28;20057;-49
2022/08/30 03:09:38;;;;;;;15.27;9.20;;;14.30;99.90;;;;;;5023551;28;20060;-48
2022/08/30 03:12:07;;;;;;;21.88;9.73;;;14.30;99.90;;;;;;5031333;28;20445;-51
2022/08/30 03:14:36;;;;;;;15.52;8.90;;;14.30;99.90;;;;;;5029244;28;20069;-49
2022/08/30 03:17:05;;;;;;;18.38;8.95;;;14.30;99.90;;;;;;5031223;28;20052;-48
2022/08/30 03:19:35;;;;;;;15.85;8.43;;;14.20;99.90;;;;;;5030292;28;20556;-49
2022/08/30 03:22:04;;;;;;;17.70;7.70;;;14.20;99.90;;;;;;5030514;28;20054;-48
2022/08/30 03:24:32;;;;;;;16.80;8.52;;;14.20;99.90;;;;;;5041558;28;20397;-48
2022/08/30 03:26:59;;;;;;;13.25;8.55;;;14.20;99.90;;;;;;5050821;28;20052;-47
2022/08/30 03:29:26;;;;;;;19.95;8.95;;;14.20;99.90;;;;;;5049737;28;20489;-49
2022/08/30 03:31:52;;;;;;;14.25;7.63;;;14.20;99.90;;;;;;5031395;28;20052;-48
2022/08/30 03:34:20;;;;;;;15.93;8.13;;;14.20;99.90;;;;;;5030632;28;20069;-48
2022/08/30 03:36:48;;;;;;;17.00;8.27;;;14.20;99.90;;;;;;5021492;28;20104;-49
2022/08/30 03:39:15;;;;;;;14.75;7.50;;;14.20;99.90;;;;;;5029003;28;20490;-51
2022/08/30 03:41:41;;;;;;;11.77;7.65;;;14.10;99.90;;;;;;5029975;28;20041;-48
2022/08/30 03:44:08;;;;;;;16.17;9.43;;;14.10;99.90;;;;;;5026179;28;20060;-48
2022/08/30 03:46:35;;;;;;;15.35;7.95;;;14.00;99.90;;;;;;5027216;28;20042;-47
2022/08/30 03:49:03;;;;;;;12.23;7.43;;;13.90;99.90;;;;;;5031371;28;20095;-49
2022/08/30 03:51:31;;;;;;;;;;;13.90;99.90;;;;;;5023724;28;20405;-48
2022/08/30 03:53:58;;;;;;;11.98;7.60;;;13.90;99.90;;;;;;5028878;28;20340;-51
2022/08/30 03:56:24;;;;;;;14.20;7.72;;;13.90;99.90;;;;;;5032816;28;20053;-48
2022/08/30 03:58:51;;;;;;;11.48;7.40;;;13.90;99.90;;;;;;5031020;28;20042;-47
2022/08/30 04:01:18;;;;;;;14.15;7.65;;;13.90;99.90;;;;;;5028610;28;20038;-47
2022/08/30 04:03:45;;;;;;;13.70;8.73;;;13.90;99.90;;;;;;5032216;28;20042;-48
2022/08/30 04:06:12;;;;;;;16.85;8.82;;;13.90;99.90;;;;;;5030875;28;20042;-48
2022/08/30 04:08:39;;;;;;;14.45;8.25;;;13.90;99.90;;;;;;5015175;28;20046;-47
2022/08/30 04:11:06;;;;;;;14.90;8.73;;;13.90;99.90;;;;;;5023232;28;20091;-48
2022/08/30 04:13:32;;;;;;;13.30;8.20;;;13.90;99.90;;;;;;5026851;28;20565;-48
2022/08/30 04:16:00;;;;;;;13.32;6.50;;;13.90;99.90;;;;;;5029023;28;20034;-47
2022/08/30 04:18:26;;;;;;;13.27;6.90;;;13.80;99.90;;;;;;5015374;28;20453;-47
2022/08/30 04:20:53;;;;;;;12.23;8.13;;;13.70;99.90;;;;;;5029489;28;20033;-47
2022/08/30 04:23:20;;;;;;;18.08;8.07;;;13.70;99.90;;;;;;5029923;28;20402;-47
2022/08/30 04:25:47;;;;;;;16.23;8.27;;;13.70;99.90;;;;;;5022581;28;20545;-48
2022/08/30 04:28:13;;;;;;;16.00;8.13;;;13.80;99.90;;;;;;5023763;28;20411;-48
2022/08/30 04:30:42;;;;;;;14.07;8.05;;;13.80;99.90;;;;;;5028302;28;20045;-48
2022/08/30 04:33:10;;;;;;;17.38;7.90;;;13.80;99.90;;;;;;5022210;28;20085;-49
2022/08/30 04:35:43;;;;;;;14.23;7.47;;;13.70;99.90;;;;;;5007486;28;20579;-48
2022/08/30 04:38:12;;;;;;;15.00;7.80;;;13.80;99.90;;;;;;5025561;28;20050;-48
2022/08/30 04:40:49;;;;;;;14.20;8.13;;;13.80;99.90;;;;;;5026365;28;20041;-48
2022/08/30 04:43:16;;;;;;;13.10;8.23;;;13.80;99.90;;;;;;5022822;28;20042;-48
2022/08/30 04:45:43;;;;;;;20.13;8.73;;;13.80;99.90;;;;;;5025933;28;20048;-47
2022/08/30 04:48:10;;;;;;;12.23;8.00;;;13.80;99.90;;;;;;5026414;28;20118;-49
2022/08/30 04:50:36;;;;;;;14.00;7.82;;;13.80;99.90;;;;;;5027246;28;20038;-47
2022/08/30 04:53:12;;;;;;;17.17;7.88;;;13.80;99.90;;;;;;5025907;28;20212;-47
2022/08/30 04:55:40;;;;;;;13.00;7.70;;;13.90;99.90;;;;;;5026474;28;20068;-48
2022/08/30 04:58:07;;;;;;;13.10;7.72;;;13.90;99.90;;;;;;5021226;28;20712;-49
2022/08/30 05:00:34;;;;;;;14.32;7.88;;;13.90;99.90;;;;;;5024065;28;20073;-47
2022/08/30 05:03:00;;;;;;;17.30;8.35;;;14.00;99.90;;;;;;5032036;28;20103;-48
2022/08/30 05:05:40;;;;;;;13.80;7.28;;;14.00;99.90;;;;;;5025426;28;20382;-48
2022/08/30 05:08:14;;;;;;;11.85;7.55;;;14.00;99.90;;;;;;5026741;28;20099;-48
2022/08/30 05:10:44;;;;;;;14.45;8.43;;;14.20;99.90;;;;;;5032149;28;20033;-49
2022/08/30 05:13:11;;;;;;;14.73;7.47;;;14.20;99.90;;;;;;5033074;28;20057;-47
2022/08/30 05:15:39;;;;;;;15.18;8.13;;;14.20;99.90;;;;;;5032735;28;20589;-48
2022/08/30 05:18:07;;;;;;;13.98;8.32;;;14.20;99.90;;;;;;5032084;28;20359;-48
2022/08/30 05:20:39;;;;;;;13.27;8.07;;;14.20;99.90;;;;;;5025788;28;20075;-48
2022/08/30 05:23:05;;;;;;;12.95;7.93;;;14.20;99.90;;;;;;5009183;28;20041;-47
2022/08/30 05:25:36;;;;;;;14.70;7.68;;;14.20;99.90;;;;;;5022601;28;20429;-48
2022/08/30 05:28:03;;;;;;;17.45;7.32;;;14.20;99.90;;;;;;5028594;28;20057;-48
2022/08/30 05:30:33;;;;;;;14.85;7.82;;;14.20;99.90;;;;;;5029370;28;20041;-47
2022/08/30 05:33:01;;;;;;;17.33;8.35;;;14.30;99.90;;;;;;5031740;28;20088;-48
2022/08/30 05:35:28;;;;;;;13.75;7.75;;;14.40;99.90;;;;;;5031652;28;20042;-48
2022/08/30 05:37:55;;;;;;;14.85;8.65;;;14.50;99.90;;;;;;5022601;28;20100;-48
2022/08/30 05:40:22;;;;;;;15.13;7.78;;;14.60;99.90;;;;;;5028063;28;20038;-48
2022/08/30 05:42:49;;;;;;;11.73;7.97;;;14.70;99.90;;;;;;5050307;22;20100;-49
2022/08/30 05:45:59;;;;;;;15.60;8.98;;;14.70;99.90;;;;;;5005561;28;20065;-48
2022/08/30 05:48:27;;;;;;;17.98;8.65;;;14.80;99.90;;;;;;5016150;28;20099;-48
2022/08/30 05:51:03;;;;;;;;;;;14.90;99.90;;;;;;5026415;28;20057;-48
2022/08/30 05:53:30;;;;;;;17.08;8.68;;;14.90;99.90;;;;;;5030039;28;19921;-49
2022/08/30 05:55:59;;;;;;;17.85;9.23;;;15.00;99.90;;;;;;5032730;28;20049;-48
2022/08/30 05:58:26;;;;;;;15.95;9.05;;;15.00;99.90;;;;;;5028128;28;20053;-48
2022/08/30 06:00:52;;;;;;;15.68;9.13;;;15.10;99.90;;;;;;5023137;28;20432;-48
2022/08/30 06:03:19;;;;;;;15.75;8.93;;;15.20;99.90;;;;;;5031906;28;20037;-49
2022/08/30 06:05:46;;;;;;;15.98;8.75;;;15.20;99.90;;;;;;5031026;28;20041;-48
2022/08/30 06:08:19;;;;;;;15.07;9.48;;;15.20;99.90;;;;;;5023332;28;20128;-48
2022/08/30 06:10:46;;;;;;;15.93;9.77;;;15.20;99.90;;;;;;5032187;28;20045;-48
2022/08/30 06:13:13;;;;;;;15.65;9.32;;;15.30;99.90;;;;;;5031414;28;20034;-49
2022/08/30 06:15:43;;;;;;;17.98;8.85;;;15.30;99.90;;;;;;5009895;28;20045;-48
2022/08/30 06:18:12;;;;;;;15.10;9.30;;;15.30;99.90;;;;;;5019149;28;20050;-50
2022/08/30 06:20:46;;;;;;;17.67;10.40;;;15.40;99.90;;;;;;5023785;28;20033;-48
2022/08/30 06:23:16;;;;;;;19.00;10.73;;;15.40;99.90;;;;;;5029300;28;20112;-49
2022/08/30 06:25:43;;;;;;;19.38;9.82;;;15.50;99.90;;;;;;5031516;28;20057;-48
2022/08/30 06:28:10;;;;;;;14.32;8.88;;;15.60;99.90;;;;;;5031174;28;20053;-48
2022/08/30 06:30:39;;;;;;;16.17;8.52;;;15.70;99.90;;;;;;5021420;28;20099;-48
2022/08/30 06:33:06;;;;;;;17.42;8.75;;;15.80;99.90;;;;;;5013741;28;20045;-49
2022/08/30 06:35:33;;;;;;;16.33;9.55;;;15.90;99.90;;;;;;5026317;28;20037;-48
2022/08/30 06:38:07;;;;;;;14.88;8.60;;;16.00;99.90;;;;;;5008952;28;20049;-49
2022/08/30 06:40:35;;;;;;;13.02;9.00;;;16.20;99.90;;;;;;5030347;28;20072;-48
2022/08/30 06:43:02;;;;;;;15.85;8.70;;;16.30;99.90;;;;;;5031219;28;20573;-49
2022/08/30 06:45:29;;;;;;;13.93;9.80;;;16.40;99.90;;;;;;5023738;28;20037;-48
2022/08/30 06:47:58;;;;;;;15.43;9.82;;;16.60;99.90;;;;;;5031455;28;20046;-53
2022/08/30 06:50:30;;;;;;;18.48;10.23;;;16.70;99.90;;;;;;5031341;28;20053;-48
2022/08/30 06:53:03;;;;;;;16.73;10.35;;;16.80;99.90;;;;;;5028715;28;20415;-49
2022/08/30 06:55:32;;;;;;;13.43;9.30;;;16.90;99.90;;;;;;5030388;28;20444;-49
2022/08/30 06:58:00;;;;;;;13.85;8.45;;;17.00;99.90;;;;;;5031129;28;20050;-50
2022/08/30 07:00:27;;;;;;;15.65;8.27;;;17.10;99.90;;;;;;5023062;28;20041;-48
2022/08/30 07:02:54;;;;;;;16.05;9.60;;;17.20;99.90;;;;;;5031037;28;20037;-48
2022/08/30 07:05:22;;;;;;;13.68;9.50;;;17.30;99.90;;;;;;5030030;28;20041;-48
2022/08/30 07:07:52;;;;;;;15.77;9.50;;;17.30;99.90;;;;;;5023242;28;20518;-48
2022/08/30 07:10:20;;;;;;;13.63;9.00;;;17.30;99.90;;;;;;5027684;28;20405;-48
2022/08/30 07:12:47;;;;;;;14.88;9.57;;;17.50;99.90;;;;;;5010533;28;20045;-48
2022/08/30 07:15:14;;;;;;;;;;;17.70;99.90;;;;;;5007327;28;20054;-48
2022/08/30 07:20:26;;;;;;;16.67;9.50;;;17.90;99.90;;;;;;5031121;28;20052;-48
2022/08/30 07:23:05;;;;;;;12.55;9.25;;;18.00;99.90;;;;;;5030761;28;20465;-48
2022/08/30 07:25:32;;;;;;;13.65;9.07;;;18.00;99.90;;;;;;5020240;28;20038;-48
2022/08/30 07:27:59;;;;;;;13.75;8.55;;;18.10;99.90;;;;;;5031025;28;20064;-48
2022/08/30 07:30:25;;;;;;;14.32;9.07;;;18.10;99.90;;;;;;5030839;28;20049;-48
2022/08/30 07:32:52;;;;;;;11.02;7.97;;;18.20;99.90;;;;;;5030940;28;20413;-48
2022/08/30 07:35:19;;;;;;;12.15;8.88;;;18.30;99.90;;;;;;5022583;28;20049;-49
2022/08/30 07:37:46;;;;;;;12.23;8.10;;;18.40;99.90;;;;;;5030985;28;20108;-48
2022/08/30 07:40:12;;;;;;;21.23;9.07;;;18.50;99.90;;;;;;5021234;28;20046;-48
2022/08/30 07:42:39;;;;;;;13.05;8.57;;;18.60;99.90;;;;;;5030724;28;20046;-48
2022/08/30 07:45:07;;;;;;;14.50;8.25;;;18.80;99.90;;;;;;5029532;28;20046;-48
2022/08/30 07:47:35;;;;;;;13.27;7.82;;;18.90;99.90;;;;;;5029676;28;20104;-49
2022/08/30 07:50:02;;;;;;;;;;;19.00;99.90;;;;;;5014297;28;20046;-48
2022/08/30 07:52:29;;;;;;;12.13;7.60;;;19.00;99.90;;;;;;5019487;28;19928;-47
2022/08/30 07:54:57;;;;;;;11.15;7.90;;;19.10;99.90;;;;;;4993041;28;20549;-47
2022/08/30 07:57:24;;;;;;;12.88;8.75;;;19.20;99.90;;;;;;5013520;28;20045;-48
2022/08/30 07:59:51;;;;;;;12.45;7.65;;;19.40;99.90;;;;;;5016159;28;20054;-48
2022/08/30 08:02:18;;;;;;;;;;;19.40;99.90;;;;;;5019722;28;20092;-48
2022/08/30 08:04:47;;;;;;;11.15;7.70;;;19.60;99.90;;;;;;5030155;28;19924;-48
2022/08/30 08:07:14;;;;;;;10.45;7.55;;;19.80;99.90;;;;;;5027589;28;20485;-49
2022/08/30 08:09:41;;;;;;;13.65;7.60;;;19.80;99.90;;;;;;5023795;28;20049;-48
2022/08/30 08:12:07;;;;;;;10.85;6.90;;;19.90;99.90;;;;;;5013239;28;20057;-50
2022/08/30 08:14:35;;;;;;;11.07;6.68;;;20.00;99.90;;;;;;5010495;28;20046;-48
2022/08/30 08:17:03;;;;;;;13.73;7.55;;;20.10;99.90;;;;;;5016966;28;20041;-49
2022/08/30 08:19:30;;;;;;;10.20;7.15;;;20.20;99.90;;;;;;5022375;28;20390;-48
2022/08/30 08:21:59;;;;;;;10.98;7.13;;;20.30;99.90;;;;;;5030202;28;20046;-49
2022/08/30 08:24:45;;;;;;;12.90;7.97;;;20.40;99.90;;;;;;5027932;28;20081;-47
2022/08/30 08:27:12;;;;;;;21.02;7.28;;;20.60;99.90;;;;;;5030234;28;20041;-48
2022/08/30 08:29:39;;;;;;;10.98;7.38;;;20.70;99.90;;;;;;5032514;28;20033;-48
2022/08/30 08:32:06;;;;;;;10.38;6.80;;;20.80;99.90;;;;;;5024464;28;20038;-50
2022/08/30 08:34:34;;;;;;;11.93;7.60;;;20.80;99.90;;;;;;5025555;28;20556;-48
2022/08/30 08:37:01;;;;;;;10.70;7.10;;;20.80;99.90;;;;;;5033659;28;20047;-51
2022/08/30 08:39:28;;;;;;;;;;;21.00;99.90;;;;;;5029727;28;20041;-48
2022/08/30 08:42:09;;;;;;;12.63;7.18;;;21.10;99.90;;;;;;5027605;28;19929;-49
2022/08/30 08:45:03;;;;;;;9.20;6.60;;;21.20;99.90;;;;;;5021433;28;20048;-48
2022/08/30 08:47:54;;;;;;;10.85;6.85;;;21.30;99.90;;;;;;5032575;28;20084;-49
2022/08/30 08:50:23;;;;;;;10.75;6.38;;;21.30;99.90;;;;;;5033854;28;20053;-49
2022/08/30 08:56:13;;;;;;;9.27;6.90;;;21.40;99.90;;;;;;5033437;28;20045;-48
2022/08/30 08:58:53;;;;;;;10.43;6.38;;;21.50;99.90;;;;;;5024001;28;20072;-48
2022/08/30 09:01:28;;;;;;;11.88;6.75;;;21.50;99.90;;;;;;5032923;28;20045;-49
2022/08/30 09:04:00;;;;;;;8.82;6.43;;;21.60;99.90;;;;;;5032882;28;20045;-48
2022/08/30 09:06:51;;;;;;;9.10;6.30;;;21.60;99.90;;;;;;5027180;28;20038;-48
2022/08/30 09:09:23;;;;;;;9.18;6.13;;;21.70;99.90;;;;;;5030099;28;20056;-48
2022/08/30 09:11:50;;;;;;;10.52;6.55;;;21.70;99.90;;;;;;5032457;28;20536;-48
2022/08/30 09:14:33;;;;;;;8.80;6.43;;;21.70;99.90;;;;;;5032289;28;20136;-48
2022/08/30 09:17:06;;;;;;;12.60;7.03;;;21.90;99.90;;;;;;5019440;28;20050;-50
2022/08/30 09:19:53;;;;;;;8.05;6.28;;;22.10;99.90;;;;;;5033255;28;20052;-48
2022/08/30 09:22:27;;;;;;;9.40;6.43;;;22.30;99.90;;;;;;5032876;28;20064;-48
2022/08/30 09:25:01;;;;;;;9.98;6.50;;;22.40;99.90;;;;;;5027817;28;20041;-48
2022/08/30 09:27:36;;;;;;;8.85;6.45;;;22.40;99.90;;;;;;5032585;28;20052;-50
2022/08/30 09:30:19;;;;;;;9.52;6.60;;;22.50;99.90;;;;;;5032065;28;20528;-52
2022/08/30 09:32:58;;;;;;;11.23;6.93;;;22.50;99.90;;;;;;5020788;28;20045;-48
2022/08/30 09:35:34;;;;;;;7.22;5.80;;;22.70;99.90;;;;;;5012276;28;20046;-48
2022/08/30 09:38:05;;;;;;;10.27;6.53;;;22.70;99.90;;;;;;5013197;28;20100;-48
2022/08/30 09:40:41;;;;;;;8.77;6.57;;;22.90;99.90;;;;;;5015165;28;20044;-48
2022/08/30 09:43:19;;;;;;;10.43;6.70;;;22.90;99.90;;;;;;5024164;28;20045;-48
2022/08/30 09:46:08;;;;;;;11.20;6.47;;;22.80;99.90;;;;;;5011904;28;20054;-48
2022/08/30 09:48:42;;;;;;;10.60;6.88;;;22.80;99.90;;;;;;5011842;28;20038;-49
2022/08/30 09:51:09;;;;;;;9.10;5.70;;;22.80;99.90;;;;;;5028801;28;20049;-48
2022/08/30 09:53:57;;;;;;;8.00;6.43;;;23.00;99.90;;;;;;5012057;28;20061;-49
2022/08/30 09:57:10;;;;;;;8.45;6.20;;;23.10;99.90;;;;;;5011705;28;20074;-49
2022/08/30 09:59:38;;;;;;;7.55;5.97;;;23.40;99.90;;;;;;5018004;28;20041;-48
2022/08/30 10:02:28;;;;;;;6.88;5.75;;;23.50;99.90;;;;;;5031790;28;20052;-48
2022/08/30 10:05:19;;;;;;;8.00;6.38;;;23.60;99.90;;;;;;5032114;28;20046;-50
2022/08/30 10:07:59;;;;;;;9.48;5.70;;;23.60;99.90;;;;;;5025021;28;20045;-49
2022/08/30 10:10:58;;;;;;;9.90;6.40;;;23.50;99.90;;;;;;5032043;28;20387;-48
2022/08/30 10:13:55;;;;;;;7.78;5.95;;;23.50;99.90;;;;;;5030639;28;20053;-48
2022/08/30 10:16:47;;;;;;;7.03;5.75;;;23.50;99.90;;;;;;5002585;28;20051;-49
2022/08/30 10:19:43;;;;;;;7.53;5.55;;;23.50;99.90;;;;;;5022375;28;20050;-48
2022/08/30 10:22:29;;;;;;;7.20;6.07;;;23.50;99.90;;;;;;5022791;28;20053;-49
2022/08/30 10:25:23;;;;;;;10.77;5.68;;;23.50;99.90;;;;;;5006331;28;20443;-49
2022/08/30 10:27:52;;;;;;;7.03;5.10;;;23.60;99.90;;;;;;5019895;28;20481;-48
2022/08/30 10:30:20;;;;;;;9.60;5.93;;;23.50;99.90;;;;;;5031528;28;20438;-48
2022/08/30 10:32:51;;;;;;;7.68;6.03;;;23.50;99.90;;;;;;5026825;28;20072;-48
2022/08/30 10:35:34;;;;;;;7.57;6.13;;;23.50;99.90;;;;;;5024275;28;20049;-48
2022/08/30 10:38:15;;;;;;;13.77;6.20;;;23.60;99.90;;;;;;5031570;28;20095;-48
2022/08/30 10:43:36;;;;;;;9.50;6.38;;;23.90;99.90;;;;;;5027806;28;20050;-49
2022/08/30 10:46:08;;;;;;;11.55;6.63;;;24.00;99.90;;;;;;5026268;28;20049;-48
2022/08/30 10:48:42;;;;;;;9.43;6.88;;;24.10;99.90;;;;;;5031441;28;20516;-49
2022/08/30 10:51:40;;;;;;;10.35;6.93;;;24.20;99.90;;;;;;5031451;28;20045;-49
2022/08/30 10:54:15;;;;;;;9.52;7.28;;;24.20;99.90;;;;;;5028014;28;20045;-50
2022/08/30 10:56:48;;;;;;;8.07;6.50;;;24.30;99.90;;;;;;5031571;28;20052;-48
2022/08/30 10:59:19;;;;;;;9.18;6.63;;;24.40;99.90;;;;;;5021479;28;20413;-49
2022/08/30 11:02:07;;;;;;;12.32;6.43;;;24.40;99.90;;;;;;5025591;28;20120;-48
2022/08/30 11:04:52;;;;;;;10.02;6.20;;;24.40;99.90;;;;;;5010509;28;20045;-49
2022/08/30 11:07:36;;;;;;;9.93;6.72;;;24.40;99.90;;;;;;5007818;28;20434;-50
2022/08/30 11:10:15;;;;;;;10.68;7.00;;;24.40;99.90;;;;;;5027482;28;20336;-48
2022/08/30 11:13:03;;;;;;;9.82;6.93;;;24.50;99.90;;;;;;4991434;28;20039;-50
2022/08/30 11:15:35;;;;;;;8.82;6.32;;;24.50;99.90;;;;;;4992957;28;20045;-49
2022/08/30 11:18:02;;;;;;;14.57;7.05;;;24.50;99.90;;;;;;4992615;28;20041;-48
2022/08/30 11:20:28;;;;;;;8.95;6.45;;;24.50;99.90;;;;;;5019386;28;20120;-49
2022/08/30 11:23:17;;;;;;;6.60;5.90;;;24.60;99.90;;;;;;5011091;28;20053;-48
2022/08/30 11:25:50;;;;;;;11.65;6.47;;;24.60;99.90;;;;;;5014981;28;20041;-49
2022/08/30 11:28:35;;;;;;;5.97;5.38;;;24.60;99.90;;;;;;5030847;28;20042;-48
2022/08/30 11:31:06;;;;;;;6.75;6.03;;;24.60;99.90;;;;;;5030826;28;20472;-50
2022/08/30 11:33:45;;;;;;;7.60;5.95;;;24.60;99.90;;;;;;5030668;28;20053;-48
2022/08/30 11:36:28;;;;;;;9.10;5.97;;;24.60;99.90;;;;;;5022147;28;20135;-49
2022/08/30 11:39:38;;;;;;;9.07;6.00;;;24.70;99.90;;;;;;5031173;28;20060;-49
2022/08/30 11:42:23;;;;;;;9.00;5.82;;;24.70;99.90;;;;;;5030591;28;20133;-48
2022/08/30 11:45:26;;;;;;;9.60;6.03;;;24.80;99.90;;;;;;5049718;22;20511;-51
2022/08/30 11:48:43;;;;;;;9.60;6.20;;;24.90;99.90;;;;;;5040124;28;20080;-50
2022/08/30 11:51:54;;;;;;;9.65;5.85;;;24.90;99.90;;;;;;5050711;28;20115;-50
2022/08/30 11:55:05;;;;;;;9.60;6.30;;;25.00;99.90;;;;;;5046617;28;20041;-49
2022/08/30 11:57:49;;;;;;;7.22;5.88;;;25.00;99.90;;;;;;5070129;28;20036;-51
2022/08/30 12:00:36;;;;;;;7.47;5.75;;;25.00;99.90;;;;;;5049868;28;20044;-48
2022/08/30 12:03:15;;;;;;;6.65;5.95;;;25.00;99.90;;;;;;5062456;28;20072;-47
2022/08/30 12:05:43;;;;;;;10.18;6.18;;;25.10;99.90;;;;;;5054110;28;20037;-51
2022/08/30 12:08:19;;;;;;;9.23;5.78;;;25.10;99.90;;;;;;5052365;28;20056;-47
2022/08/30 12:10:50;;;;;;;8.02;5.95;;;25.20;99.90;;;;;;5046109;28;20055;-49
2022/08/30 12:13:46;;;;;;;6.70;5.57;;;25.20;99.90;;;;;;5055889;28;20132;-49
2022/08/30 12:16:20;;;;;;;8.43;5.53;;;25.30;99.90;;;;;;5057881;28;20045;-48
2022/08/30 12:19:08;;;;;;;7.22;5.82;;;25.40;99.90;;;;;;5073762;28;20075;-48
2022/08/30 12:21:39;;;;;;;9.23;5.60;;;25.30;99.90;;;;;;5074036;28;20405;-51
2022/08/30 12:24:23;;;;;;;8.15;5.63;;;25.30;99.90;;;;;;5056547;28;20532;-48
2022/08/30 12:26:52;;;;;;;5.63;4.60;;;25.30;99.90;;;;;;5073985;28;20045;-50
2022/08/30 12:29:23;;;;;;;6.00;5.25;;;25.40;99.90;;;;;;5073949;28;20056;-51
2022/08/30 12:31:59;;;;;;;8.32;5.20;;;25.30;99.90;;;;;;5074220;28;20064;-51
2022/08/30 12:34:33;;;;;;;8.73;5.65;;;25.30;99.90;;;;;;5064028;28;20484;-50
2022/08/30 12:37:07;;;;;;;6.43;5.30;;;25.40;99.90;;;;;;5070442;28;20044;-47
2022/08/30 12:39:39;;;;;;;5.65;4.93;;;25.40;99.90;;;;;;5073634;28;20045;-52
2022/08/30 12:42:21;;;;;;;10.77;5.20;;;25.40;99.90;;;;;;5072770;28;20251;-51
2022/08/30 12:44:51;;;;;;;6.32;5.00;;;25.40;99.90;;;;;;5048015;28;20666;-52
2022/08/30 12:47:24;;;;;;;8.90;4.68;;;25.40;99.90;;;;;;5051822;28;20401;-50
2022/08/30 12:49:52;;;;;;;5.43;4.70;;;25.40;99.90;;;;;;5066116;28;20037;-52
2022/08/30 12:52:30;;;;;;;5.55;4.93;;;25.40;99.90;;;;;;5073562;28;20040;-48
2022/08/30 12:55:11;;;;;;;10.38;5.30;;;25.40;99.90;;;;;;5055281;28;20056;-50
2022/08/30 12:57:53;;;;;;;6.90;4.93;;;25.40;99.90;;;;;;5068775;28;20049;-48
2022/08/30 13:00:36;;;;;;;6.93;5.10;;;25.40;99.90;;;;;;5063391;28;20516;-49
2022/08/30 13:03:33;;;;;;;8.93;4.63;;;25.40;99.90;;;;;;5072986;28;20041;-48
2022/08/30 13:06:01;;;;;;;7.75;5.13;;;25.40;99.90;;;;;;5073913;28;20048;-48
2022/08/30 13:08:44;;;;;;;9.52;4.32;;;25.40;99.90;;;;;;5058144;28;20115;-48
2022/08/30 13:11:24;;;;;;;9.02;5.05;;;25.40;99.90;;;;;;5073072;28;20040;-48
2022/08/30 13:14:17;;;;;;;10.45;4.90;;;25.40;99.90;;;;;;5072287;28;20048;-48
2022/08/30 13:16:45;;;;;;;5.53;4.60;;;25.50;99.90;;;;;;5067712;28;20493;-49
2022/08/30 13:19:34;;;;;;;5.45;4.82;;;25.50;99.90;;;;;;5061019;28;20094;-49